Lady First — FGE4056 — position and weather

sailwx.info

Track history (hours):
 
Tides and Currents Weather Stations Pressure Air Temp Water Temp Dewpoint Dewpoint Depression Visibility Wind Speed Wind Dir Waves Ship Positions

Lady First

Last reported at 2017-Aug-27 11:31 UTC. Time now 2017-Sep-24 21:15 UTC.
Position N 38°54' E 001°28'.
Warning: this ship's position is 28 days out of date.

Length 14 m.

Type: Sailing vessel. MMSI: 227635920.

Date/timePositionNaut miles runAvg speedWind from/ knotsBaromVisibWave heightAir tempDewpointWater temp
2017-Aug-27 11:31N 38°54' E 001°28'0 4.8
2017-Aug-27 11:27N 38°54' E 001°28'1 2.4
2017-Aug-27 10:58N 38°55' E 001°26'0 0.5
2017-Aug-27 10:30N 38°55' E 001°27'  
2017-Aug-20 09:00N 38°36' W 009°22'4 6.7
2017-Aug-20 08:24N 38°40' W 009°23'2 3.7
2017-Aug-20 07:47N 38°42' W 009°25'0 0.3
2017-Aug-20 07:14N 38°41' W 009°25'0 0.0
2017-Aug-20 06:56N 38°41' W 009°25'0 0.0
2017-Aug-20 06:29N 38°41' W 009°25'0 0.0
2017-Aug-20 05:38N 38°41' W 009°25'0 0.0
2017-Aug-20 05:20N 38°41' W 009°25'0 0.0
2017-Aug-20 04:50N 38°41' W 009°25'0 0.0
2017-Aug-20 04:20N 38°41' W 009°25'0 0.0
2017-Aug-20 03:53N 38°41' W 009°25'0 0.0
2017-Aug-20 03:02N 38°41' W 009°25'0 0.0
2017-Aug-20 02:59N 38°41' W 009°25'0 0.0
2017-Aug-20 02:20N 38°41' W 009°25'0 0.0
2017-Aug-20 01:59N 38°41' W 009°25'0 0.0
2017-Aug-20 01:29N 38°41' W 009°25'0 0.0
2017-Aug-20 00:50N 38°41' W 009°25'0 0.0
2017-Aug-20 00:20N 38°41' W 009°25'0 0.0
2017-Aug-19 23:56N 38°41' W 009°25'0 0.0
2017-Aug-19 23:05N 38°41' W 009°25'0 0.0
2017-Aug-19 22:59N 38°41' W 009°25'0 0.0
2017-Aug-19 21:50N 38°41' W 009°25'0 0.0
2017-Aug-19 21:08N 38°41' W 009°25'0 0.0
2017-Aug-19 20:41N 38°41' W 009°25'0 0.0
2017-Aug-19 18:54N 38°41' W 009°25'0 0.0
2017-Aug-19 18:30N 38°41' W 009°25'0 0.0
2017-Aug-19 16:42N 38°41' W 009°25'0 0.0
2017-Aug-19 15:24N 38°41' W 009°25'0 0.0
2017-Aug-19 13:51N 38°41' W 009°25'0 0.0
2017-Aug-19 13:24N 38°41' W 009°25'0 0.0
2017-Aug-19 12:12N 38°41' W 009°25'0 0.0
2017-Aug-19 11:54N 38°41' W 009°25'0 0.0
2017-Aug-19 11:24N 38°41' W 009°25'0 0.0
2017-Aug-19 10:57N 38°41' W 009°25'0 0.0
2017-Aug-19 09:45N 38°41' W 009°25'0 0.0
2017-Aug-19 09:21N 38°41' W 009°25'0 0.0
2017-Aug-19 06:18N 38°41' W 009°25'0 0.0
2017-Aug-19 04:18N 38°41' W 009°25'0 0.0
2017-Aug-19 04:00N 38°41' W 009°25'0 0.0
2017-Aug-19 03:27N 38°41' W 009°25'0 0.0
2017-Aug-19 03:00N 38°41' W 009°25'0 0.0
2017-Aug-19 01:42N 38°41' W 009°25'0 0.0
2017-Aug-19 01:24N 38°41' W 009°25'0 0.0
2017-Aug-19 00:51N 38°41' W 009°25'0 0.0
2017-Aug-19 00:24N 38°41' W 009°25'0 0.0
2017-Aug-18 23:54N 38°41' W 009°25'0 0.0
2017-Aug-18 23:30N 38°41' W 009°25'0 0.0
2017-Aug-18 17:42N 38°41' W 009°25'0 0.0
2017-Aug-18 17:18N 38°41' W 009°25'0 0.0
2017-Aug-18 16:54N 38°41' W 009°25'0 0.0
2017-Aug-18 16:24N 38°41' W 009°25'0 0.0
2017-Aug-18 14:03N 38°41' W 009°25'0 0.0
2017-Aug-18 09:48N 38°41' W 009°25'0 0.1
2017-Aug-18 05:03N 38°42' W 009°25'1 5.6
2017-Aug-18 04:54N 38°41' W 009°26'3 6.1
2017-Aug-18 04:27N 38°42' W 009°29'3 7.1
2017-Aug-18 04:00N 38°43' W 009°33'4 8.0
2017-Aug-18 03:30N 38°47' W 009°34'4 7.9
2017-Aug-18 03:00N 38°51' W 009°35'4 7.3
2017-Aug-18 02:30N 38°55' W 009°35'3 6.9
2017-Aug-18 02:00N 38°58' W 009°35'  
Track history (hours):
 
Tides and Currents Weather Stations Pressure Air Temp Water Temp Dewpoint Dewpoint Depression Visibility Wind Speed Wind Dir Waves Ship Positions

Lady First

Last reported at 2017-Aug-27 11:31 UTC. Time now 2017-Sep-24 21:15 UTC.
Position N 38°54' E 001°28'.
Warning: this ship's position is 28 days out of date.

Length 14 m.

Type: Sailing vessel. MMSI: 227635920.

Date/timePositionNaut miles runAvg speedWind from/ knotsBaromVisibWave heightAir tempDewpointWater temp
2017-Aug-27 11:31N 38°54' E 001°28'0 4.8
2017-Aug-27 11:27N 38°54' E 001°28'1 2.4
2017-Aug-27 10:58N 38°55' E 001°26'0 0.5
2017-Aug-27 10:30N 38°55' E 001°27'  
2017-Aug-20 09:00N 38°36' W 009°22'4 6.7
2017-Aug-20 08:24N 38°40' W 009°23'2 3.7
2017-Aug-20 07:47N 38°42' W 009°25'0 0.3
2017-Aug-20 07:14N 38°41' W 009°25'0 0.0
2017-Aug-20 06:56N 38°41' W 009°25'0 0.0
2017-Aug-20 06:29N 38°41' W 009°25'0 0.0
2017-Aug-20 05:38N 38°41' W 009°25'0 0.0
2017-Aug-20 05:20N 38°41' W 009°25'0 0.0
2017-Aug-20 04:50N 38°41' W 009°25'0 0.0
2017-Aug-20 04:20N 38°41' W 009°25'0 0.0
2017-Aug-20 03:53N 38°41' W 009°25'0 0.0
2017-Aug-20 03:02N 38°41' W 009°25'0 0.0
2017-Aug-20 02:59N 38°41' W 009°25'0 0.0
2017-Aug-20 02:20N 38°41' W 009°25'0 0.0
2017-Aug-20 01:59N 38°41' W 009°25'0 0.0
2017-Aug-20 01:29N 38°41' W 009°25'0 0.0
2017-Aug-20 00:50N 38°41' W 009°25'0 0.0
2017-Aug-20 00:20N 38°41' W 009°25'0 0.0
2017-Aug-19 23:56N 38°41' W 009°25'0 0.0
2017-Aug-19 23:05N 38°41' W 009°25'0 0.0
2017-Aug-19 22:59N 38°41' W 009°25'0 0.0
2017-Aug-19 21:50N 38°41' W 009°25'0 0.0
2017-Aug-19 21:08N 38°41' W 009°25'0 0.0
2017-Aug-19 20:41N 38°41' W 009°25'0 0.0
2017-Aug-19 18:54N 38°41' W 009°25'0 0.0
2017-Aug-19 18:30N 38°41' W 009°25'0 0.0
2017-Aug-19 16:42N 38°41' W 009°25'0 0.0
2017-Aug-19 15:24N 38°41' W 009°25'0 0.0
2017-Aug-19 13:51N 38°41' W 009°25'0 0.0
2017-Aug-19 13:24N 38°41' W 009°25'0 0.0
2017-Aug-19 12:12N 38°41' W 009°25'0 0.0
2017-Aug-19 11:54N 38°41' W 009°25'0 0.0
2017-Aug-19 11:24N 38°41' W 009°25'0 0.0
2017-Aug-19 10:57N 38°41' W 009°25'0 0.0
2017-Aug-19 09:45N 38°41' W 009°25'0 0.0
2017-Aug-19 09:21N 38°41' W 009°25'0 0.0
2017-Aug-19 06:18N 38°41' W 009°25'0 0.0
2017-Aug-19 04:18N 38°41' W 009°25'0 0.0
2017-Aug-19 04:00N 38°41' W 009°25'0 0.0
2017-Aug-19 03:27N 38°41' W 009°25'0 0.0
2017-Aug-19 03:00N 38°41' W 009°25'0 0.0
2017-Aug-19 01:42N 38°41' W 009°25'0 0.0
2017-Aug-19 01:24N 38°41' W 009°25'0 0.0
2017-Aug-19 00:51N 38°41' W 009°25'0 0.0
2017-Aug-19 00:24N 38°41' W 009°25'0 0.0
2017-Aug-18 23:54N 38°41' W 009°25'0 0.0
2017-Aug-18 23:30N 38°41' W 009°25'0 0.0
2017-Aug-18 17:42N 38°41' W 009°25'0 0.0
2017-Aug-18 17:18N 38°41' W 009°25'0 0.0
2017-Aug-18 16:54N 38°41' W 009°25'0 0.0
2017-Aug-18 16:24N 38°41' W 009°25'0 0.0
2017-Aug-18 14:03N 38°41' W 009°25'0 0.0
2017-Aug-18 09:48N 38°41' W 009°25'0 0.1
2017-Aug-18 05:03N 38°42' W 009°25'1 5.6
2017-Aug-18 04:54N 38°41' W 009°26'3 6.1
2017-Aug-18 04:27N 38°42' W 009°29'3 7.1
2017-Aug-18 04:00N 38°43' W 009°33'4 8.0
2017-Aug-18 03:30N 38°47' W 009°34'4 7.9
2017-Aug-18 03:00N 38°51' W 009°35'4 7.3
2017-Aug-18 02:30N 38°55' W 009°35'3 6.9
2017-Aug-18 02:00N 38°58' W 009°35'  

Dump ship's entire track history